createdAt,value
2023-04-26T00:00:37.555Z,15.30
2023-04-26T00:01:37.555Z,16.00
2023-04-26T00:02:37.779Z,15.70
2023-04-26T00:03:37.779Z,15.60
2023-04-26T00:04:37.774Z,15.40
2023-04-26T00:05:37.735Z,15.80
2023-04-26T00:06:37.734Z,15.00
2023-04-26T00:07:37.650Z,15.90
2023-04-26T00:08:37.662Z,15.40
2023-04-26T00:09:37.778Z,15.10
2023-04-26T00:10:37.686Z,15.10
2023-04-26T00:11:37.702Z,15.60
2023-04-26T00:12:37.719Z,15.10
2023-04-26T00:13:37.735Z,14.70
2023-04-26T00:14:37.752Z,15.00
2023-04-26T00:15:37.762Z,15.20
2023-04-26T00:16:37.792Z,15.10
2023-04-26T00:17:37.872Z,15.30
2023-04-26T00:18:37.797Z,14.80
2023-04-26T00:19:37.820Z,15.00
2023-04-26T00:20:37.839Z,15.40
2023-04-26T00:21:37.844Z,15.20
2023-04-26T00:22:37.870Z,15.10
2023-04-26T00:23:37.875Z,15.70
2023-04-26T00:24:37.895Z,15.30
2023-04-26T00:25:37.917Z,15.10
2023-04-26T00:26:37.931Z,15.30
2023-04-26T00:27:37.938Z,14.90
2023-04-26T00:28:38.047Z,14.70
2023-04-26T00:29:37.975Z,15.00
2023-04-26T00:30:37.975Z,14.60
2023-04-26T00:31:38.048Z,15.40
2023-04-26T00:32:38.052Z,14.50
2023-04-26T00:33:38.037Z,15.40
2023-04-26T00:34:38.169Z,14.60
2023-04-26T00:35:38.056Z,14.90
2023-04-26T00:36:38.064Z,15.20
2023-04-26T00:37:38.092Z,15.00
2023-04-26T00:38:38.097Z,14.60
2023-04-26T00:39:38.129Z,15.30
2023-04-26T00:40:38.123Z,15.00
2023-04-26T00:41:38.160Z,14.80
2023-04-26T00:42:38.175Z,15.30
2023-04-26T00:43:38.173Z,15.60
2023-04-26T00:44:38.183Z,14.90
2023-04-26T00:45:38.236Z,15.30
2023-04-26T00:46:38.222Z,14.90
2023-04-26T00:47:38.260Z,15.20
2023-04-26T00:48:38.263Z,15.10
2023-04-26T00:49:38.255Z,14.90
2023-04-26T00:50:38.300Z,14.80
2023-04-26T00:51:38.380Z,15.10
2023-04-26T00:52:38.305Z,14.70
2023-04-26T00:53:38.328Z,15.10
2023-04-26T00:54:38.356Z,14.20
2023-04-26T00:55:38.389Z,14.80
2023-04-26T00:56:38.482Z,14.10
2023-04-26T00:57:38.395Z,15.20
2023-04-26T00:58:38.402Z,14.50
2023-04-26T00:59:38.405Z,14.60
2023-04-26T01:00:38.424Z,14.80
2023-04-26T01:01:38.677Z,14.70
2023-04-26T01:02:38.675Z,14.60
2023-04-26T01:03:38.686Z,14.70
2023-04-26T01:04:38.484Z,15.00
2023-04-26T01:05:38.488Z,14.80
2023-04-26T01:06:38.690Z,14.80
2023-04-26T01:07:38.646Z,14.10
2023-04-26T01:08:38.539Z,14.70
2023-04-26T01:09:38.565Z,14.70
2023-04-26T01:10:38.560Z,14.90
2023-04-26T01:11:38.584Z,14.40
2023-04-26T01:12:38.588Z,14.00
2023-04-26T01:13:38.622Z,14.80
2023-04-26T01:14:38.633Z,14.60
2023-04-26T01:15:38.642Z,14.30
2023-04-26T01:16:38.734Z,14.80
2023-04-26T01:17:38.712Z,14.70
2023-04-26T01:18:38.683Z,14.50
2023-04-26T01:19:38.691Z,14.70
2023-04-26T01:20:38.704Z,14.70
2023-04-26T01:21:38.729Z,14.50
2023-04-26T01:22:38.745Z,14.80
2023-04-26T01:23:38.748Z,14.80
2023-04-26T01:24:38.766Z,14.70
2023-04-26T01:25:38.798Z,14.70
2023-04-26T01:26:38.798Z,14.80
2023-04-26T01:27:38.817Z,14.60
2023-04-26T01:28:38.839Z,14.60
2023-04-26T01:29:38.861Z,15.00
2023-04-26T01:30:38.866Z,14.70
2023-04-26T01:31:38.872Z,15.10
2023-04-26T01:32:38.919Z,14.70
2023-04-26T01:33:38.910Z,14.40
2023-04-26T01:34:38.923Z,14.10
2023-04-26T01:35:38.923Z,14.30
2023-04-26T01:36:38.936Z,14.40
2023-04-26T01:37:38.962Z,14.60
2023-04-26T01:38:38.974Z,14.30
2023-04-26T01:39:38.988Z,14.60
2023-04-26T01:40:39.006Z,14.90
2023-04-26T01:41:39.120Z,14.50
2023-04-26T01:42:39.021Z,13.70
2023-04-26T01:43:39.044Z,14.40
2023-04-26T01:44:39.052Z,14.70
2023-04-26T01:45:39.302Z,14.40
2023-04-26T01:46:39.342Z,14.80
2023-04-26T01:47:39.119Z,14.40
2023-04-26T01:48:39.109Z,14.50
2023-04-26T01:49:39.133Z,14.70
2023-04-26T01:50:39.146Z,14.20
2023-04-26T01:51:39.160Z,14.60
2023-04-26T01:52:39.275Z,14.30
2023-04-26T01:53:39.189Z,15.00
2023-04-26T01:54:39.199Z,14.50
2023-04-26T01:55:39.210Z,14.80
2023-04-26T01:56:39.260Z,15.30
2023-04-26T01:57:39.245Z,14.70
2023-04-26T01:58:39.358Z,15.00
2023-04-26T01:59:39.266Z,14.80
2023-04-26T02:00:39.290Z,14.60
2023-04-26T02:01:39.336Z,14.50
2023-04-26T02:02:39.488Z,15.10
2023-04-26T02:03:39.398Z,14.60
2023-04-26T02:04:39.527Z,14.70
2023-04-26T02:05:39.363Z,15.00
2023-04-26T02:06:39.414Z,14.80
2023-04-26T02:07:39.390Z,14.70
2023-04-26T02:08:39.404Z,15.10
2023-04-26T02:09:39.422Z,14.80
2023-04-26T02:10:39.433Z,15.20
2023-04-26T02:11:39.447Z,14.30
2023-04-26T02:12:39.457Z,14.90
2023-04-26T02:13:39.479Z,15.30
2023-04-26T02:14:39.492Z,14.60
2023-04-26T02:15:39.668Z,14.80
2023-04-26T02:16:39.551Z,14.80
2023-04-26T02:17:39.587Z,14.70
2023-04-26T02:18:39.548Z,14.80
2023-04-26T02:19:39.568Z,15.10
2023-04-26T02:20:39.673Z,14.90
2023-04-26T02:21:39.589Z,14.90
2023-04-26T02:22:39.615Z,14.70
2023-04-26T02:23:39.626Z,14.40
2023-04-26T02:24:39.632Z,14.90
2023-04-26T02:25:39.648Z,14.50
2023-04-26T02:26:39.658Z,14.70
2023-04-26T02:27:39.676Z,14.40
2023-04-26T02:28:39.731Z,14.60
2023-04-26T02:29:43.742Z,15.20
2023-04-26T02:30:39.754Z,15.30
2023-04-26T02:31:39.799Z,14.80
2023-04-26T02:32:39.812Z,15.00
2023-04-26T02:33:39.788Z,13.90
2023-04-26T02:34:39.779Z,14.30
2023-04-26T02:35:39.805Z,14.90
2023-04-26T02:36:39.811Z,14.20
2023-04-26T02:37:39.825Z,14.10
2023-04-26T02:38:39.833Z,14.20
2023-04-26T02:39:39.852Z,14.40
2023-04-26T02:40:39.865Z,14.50
2023-04-26T02:41:39.888Z,14.70
2023-04-26T02:42:39.895Z,14.80
2023-04-26T02:43:39.919Z,14.20
2023-04-26T02:44:40.157Z,14.40
2023-04-26T02:45:39.942Z,14.30
2023-04-26T02:46:39.984Z,14.70
2023-04-26T02:47:40.107Z,14.60
2023-04-26T02:48:39.986Z,14.40
2023-04-26T02:49:40.110Z,14.20
2023-04-26T02:50:40.031Z,14.00
2023-04-26T02:51:40.040Z,14.30
2023-04-26T02:52:40.041Z,14.50
2023-04-26T02:53:40.069Z,14.00
2023-04-26T02:54:40.066Z,13.90
2023-04-26T02:55:40.073Z,14.40
2023-04-26T02:56:40.092Z,13.60
2023-04-26T02:57:40.104Z,14.30
2023-04-26T02:58:40.126Z,14.50
2023-04-26T02:59:40.140Z,14.40
2023-04-26T03:00:40.271Z,14.10
2023-04-26T03:01:40.202Z,14.10
2023-04-26T03:02:40.335Z,13.90
2023-04-26T03:03:40.262Z,14.20
2023-04-26T03:04:40.211Z,14.20
2023-04-26T03:05:40.238Z,14.20
2023-04-26T03:06:40.234Z,13.50
2023-04-26T03:07:40.251Z,13.80
2023-04-26T03:08:40.261Z,14.50
2023-04-26T03:09:40.287Z,14.30
2023-04-26T03:10:40.310Z,14.40
2023-04-26T03:11:40.406Z,14.10
2023-04-26T03:12:40.320Z,14.20
2023-04-26T03:13:40.363Z,13.90
2023-04-26T03:14:40.353Z,13.90
2023-04-26T03:15:40.369Z,13.90
2023-04-26T03:16:40.425Z,14.70
2023-04-26T03:17:40.413Z,13.80
2023-04-26T03:18:40.411Z,14.40
2023-04-26T03:19:40.424Z,13.70
2023-04-26T03:20:40.850Z,13.60
2023-04-26T03:21:40.469Z,13.90
2023-04-26T03:22:40.480Z,13.50
2023-04-26T03:23:40.485Z,13.50
2023-04-26T03:24:40.492Z,13.90
2023-04-26T03:25:40.507Z,13.90
2023-04-26T03:26:40.527Z,13.50
2023-04-26T03:27:40.565Z,14.00
2023-04-26T03:28:40.681Z,13.90
2023-04-26T03:29:42.749Z,13.90
2023-04-26T03:30:40.579Z,14.20
2023-04-26T03:31:40.641Z,14.00
2023-04-26T03:32:40.646Z,13.60
2023-04-26T03:33:40.635Z,13.80
2023-04-26T03:34:40.640Z,13.30
2023-04-26T03:35:40.661Z,14.00
2023-04-26T03:36:40.674Z,13.40
2023-04-26T03:37:40.710Z,13.40
2023-04-26T03:38:40.694Z,13.90
2023-04-26T03:39:40.716Z,13.40
2023-04-26T03:40:40.732Z,13.20
2023-04-26T03:41:40.743Z,13.20
2023-04-26T03:42:40.757Z,13.20
2023-04-26T03:43:40.774Z,13.50
2023-04-26T03:44:40.818Z,13.10
2023-04-26T03:45:40.805Z,13.10
2023-04-26T03:46:40.841Z,13.20
2023-04-26T03:47:40.843Z,13.10
2023-04-26T03:48:40.850Z,12.90
2023-04-26T03:49:40.869Z,13.00
2023-04-26T03:50:40.942Z,13.20
2023-04-26T03:51:40.988Z,13.30
2023-04-26T03:52:40.905Z,13.10
2023-04-26T03:53:40.934Z,12.90
2023-04-26T03:54:40.944Z,13.40
2023-04-26T03:55:40.944Z,13.20
2023-04-26T03:56:40.961Z,13.30
2023-04-26T03:57:40.964Z,12.20
2023-04-26T03:58:40.978Z,12.80
2023-04-26T03:59:41.000Z,13.00
2023-04-26T04:00:41.012Z,12.60
2023-04-26T04:01:41.031Z,12.90
2023-04-26T04:02:41.147Z,12.70
2023-04-26T04:03:41.710Z,12.70
2023-04-26T04:04:41.158Z,12.70
2023-04-26T04:05:41.230Z,12.30
2023-04-26T04:06:41.099Z,13.10
2023-04-26T04:07:41.104Z,12.70
2023-04-26T04:08:41.120Z,12.40
2023-04-26T04:09:41.175Z,12.60
2023-04-26T04:10:41.153Z,12.60
2023-04-26T04:11:41.162Z,12.80
2023-04-26T04:12:41.190Z,12.10
2023-04-26T04:13:41.199Z,12.20
2023-04-26T04:14:41.205Z,12.70
2023-04-26T04:15:41.264Z,12.50
2023-04-26T04:16:41.235Z,13.00
2023-04-26T04:17:41.277Z,12.40
2023-04-26T04:18:41.266Z,13.00
2023-04-26T04:19:41.275Z,12.10
2023-04-26T04:20:41.303Z,12.60
2023-04-26T04:21:41.306Z,12.00
2023-04-26T04:22:41.319Z,13.00
2023-04-26T04:23:41.342Z,12.20
2023-04-26T04:24:41.348Z,12.40
2023-04-26T04:25:41.605Z,12.60
2023-04-26T04:26:41.375Z,11.90
2023-04-26T04:27:41.389Z,11.40
2023-04-26T04:28:41.419Z,12.00
2023-04-26T04:29:41.417Z,11.80
2023-04-26T04:30:41.439Z,12.00
2023-04-26T04:31:41.841Z,11.90
2023-04-26T04:32:41.489Z,12.00
2023-04-26T04:33:41.578Z,11.60
2023-04-26T04:34:41.496Z,11.80
2023-04-26T04:35:41.509Z,12.00
2023-04-26T04:36:41.527Z,11.60
2023-04-26T04:37:41.633Z,12.00
2023-04-26T04:38:41.543Z,11.70
2023-04-26T04:39:41.569Z,11.70
2023-04-26T04:40:41.585Z,11.80
2023-04-26T04:41:41.620Z,11.90
2023-04-26T04:42:41.703Z,11.30
2023-04-26T04:43:41.625Z,11.20
2023-04-26T04:44:41.638Z,11.80
2023-04-26T04:45:41.653Z,11.80
2023-04-26T04:46:41.716Z,12.10
2023-04-26T04:47:41.717Z,11.20
2023-04-26T04:48:41.694Z,11.50
2023-04-26T04:49:41.717Z,11.30
2023-04-26T04:50:41.726Z,11.20
2023-04-26T04:51:41.726Z,11.70
2023-04-26T04:52:41.744Z,11.20
2023-04-26T04:53:41.761Z,11.50
2023-04-26T04:54:41.778Z,11.80
2023-04-26T04:55:41.785Z,11.00
2023-04-26T04:56:41.799Z,11.30
2023-04-26T04:57:42.992Z,11.00
2023-04-26T04:58:41.838Z,11.10
2023-04-26T04:59:41.861Z,11.30
2023-04-26T05:00:41.882Z,10.80
2023-04-26T05:01:41.919Z,11.40
2023-04-26T05:02:42.008Z,10.90
2023-04-26T05:03:42.088Z,10.70
2023-04-26T05:04:42.112Z,10.70
2023-04-26T05:05:41.928Z,11.20
2023-04-26T05:06:41.941Z,10.80
2023-04-26T05:07:41.973Z,10.50
2023-04-26T05:08:41.980Z,10.90
2023-04-26T05:09:41.995Z,10.80
2023-04-26T05:10:42.107Z,11.00
2023-04-26T05:11:42.013Z,10.80
2023-04-26T05:12:42.032Z,11.00
2023-04-26T05:13:42.066Z,10.60
2023-04-26T05:14:42.057Z,10.70
2023-04-26T05:15:42.068Z,10.40
2023-04-26T05:16:42.116Z,10.30
2023-04-26T05:17:42.114Z,10.70
2023-04-26T05:18:42.113Z,11.00
2023-04-26T05:19:42.140Z,10.70
2023-04-26T05:20:42.156Z,10.40
2023-04-26T05:21:42.158Z,10.20
2023-04-26T05:22:42.177Z,10.20
2023-04-26T05:23:42.197Z,10.60
2023-04-26T05:24:42.200Z,10.00
2023-04-26T05:25:42.221Z,10.50
2023-04-26T05:26:42.235Z,10.10
2023-04-26T05:27:42.243Z,9.60
2023-04-26T05:28:42.355Z,10.60
2023-04-26T05:29:42.297Z,10.50
2023-04-26T05:30:42.290Z,10.40
2023-04-26T05:31:42.329Z,10.00
2023-04-26T05:32:42.324Z,10.30
2023-04-26T05:33:42.326Z,10.00
2023-04-26T05:34:42.357Z,10.40
2023-04-26T05:35:42.363Z,9.90
2023-04-26T05:36:42.369Z,9.90
2023-04-26T05:37:42.383Z,9.90
2023-04-26T05:38:42.395Z,9.90
2023-04-26T05:39:42.517Z,10.20
2023-04-26T05:40:42.432Z,10.10
2023-04-26T05:41:42.449Z,10.00
2023-04-26T05:42:42.461Z,9.90
2023-04-26T05:43:42.467Z,10.10
2023-04-26T05:44:42.487Z,10.20
2023-04-26T05:45:42.633Z,10.00
2023-04-26T05:46:42.510Z,10.10
2023-04-26T05:47:42.556Z,10.20
2023-04-26T05:48:42.545Z,9.80
2023-04-26T05:49:42.553Z,9.70
2023-04-26T05:50:42.565Z,9.70
2023-04-26T05:51:42.700Z,9.50
2023-04-26T05:52:42.603Z,9.80
2023-04-26T05:53:42.612Z,9.70
2023-04-26T05:54:42.619Z,9.50
2023-04-26T05:55:42.645Z,9.70
2023-04-26T05:56:42.705Z,9.40
2023-04-26T05:57:42.711Z,9.60
2023-04-26T05:58:42.674Z,9.20
2023-04-26T05:59:42.699Z,9.40
2023-04-26T06:00:42.722Z,9.70
2023-04-26T06:01:42.762Z,9.80
2023-04-26T06:02:42.918Z,9.60
2023-04-26T06:03:42.937Z,9.30
2023-04-26T06:04:43.115Z,9.70
2023-04-26T06:05:42.859Z,9.50
2023-04-26T06:06:42.816Z,9.40
2023-04-26T06:07:42.808Z,9.60
2023-04-26T06:08:42.823Z,9.50
2023-04-26T06:09:42.833Z,9.50
2023-04-26T06:10:42.843Z,9.10
2023-04-26T06:11:42.853Z,9.20
2023-04-26T06:12:42.872Z,9.50
2023-04-26T06:13:42.900Z,9.10
2023-04-26T06:14:42.906Z,9.40
2023-04-26T06:15:42.934Z,9.80
2023-04-26T06:16:43.711Z,9.30
2023-04-26T06:17:42.983Z,8.90
2023-04-26T06:18:42.954Z,9.70
2023-04-26T06:19:42.976Z,9.50
2023-04-26T06:20:42.992Z,9.20
2023-04-26T06:21:43.000Z,9.20
2023-04-26T06:22:43.015Z,9.50
2023-04-26T06:23:43.030Z,9.20
2023-04-26T06:24:43.035Z,9.40
2023-04-26T06:25:43.051Z,9.40
2023-04-26T06:26:43.072Z,8.90
2023-04-26T06:27:43.093Z,8.90
2023-04-26T06:28:43.108Z,9.00
2023-04-26T06:29:43.112Z,9.30
2023-04-26T06:30:43.211Z,9.60
2023-04-26T06:31:43.138Z,9.10
2023-04-26T06:32:43.192Z,9.10
2023-04-26T06:33:43.205Z,9.40
2023-04-26T06:34:43.181Z,9.20
2023-04-26T06:35:43.203Z,9.40
2023-04-26T06:36:43.213Z,9.20
2023-04-26T06:37:43.330Z,9.30
2023-04-26T06:38:43.237Z,10.10
2023-04-26T06:39:43.247Z,9.00
2023-04-26T06:40:43.270Z,9.40
2023-04-26T06:41:43.282Z,9.10
2023-04-26T06:42:43.303Z,9.60
2023-04-26T06:43:43.429Z,8.80
2023-04-26T06:44:43.524Z,9.40
2023-04-26T06:45:43.729Z,9.20
2023-04-26T06:46:43.580Z,9.10
2023-04-26T06:47:43.421Z,8.90
2023-04-26T06:48:43.381Z,9.40
2023-04-26T06:49:43.468Z,9.40
2023-04-26T06:50:43.413Z,9.10
2023-04-26T06:51:43.420Z,8.80
2023-04-26T06:52:43.430Z,9.10
2023-04-26T06:53:43.490Z,9.10
2023-04-26T06:54:56.117Z,8.80
2023-04-26T06:55:43.481Z,9.10
2023-04-26T06:56:43.496Z,9.10
2023-04-26T06:57:43.515Z,9.00
2023-04-26T06:58:43.525Z,8.90
2023-04-26T06:59:43.530Z,9.20
2023-04-26T07:00:43.545Z,8.90
2023-04-26T07:01:43.615Z,9.00
2023-04-26T07:02:43.688Z,8.70
2023-04-26T07:03:43.764Z,8.80
2023-04-26T07:04:43.997Z,8.90
2023-04-26T07:05:43.660Z,8.70
2023-04-26T07:06:43.631Z,8.80
2023-04-26T07:07:43.646Z,9.00
2023-04-26T07:08:43.678Z,8.40
2023-04-26T07:09:43.674Z,8.60
2023-04-26T07:10:43.698Z,8.60
2023-04-26T07:11:43.697Z,8.50
2023-04-26T07:12:43.844Z,9.00
2023-04-26T07:13:43.726Z,8.60
2023-04-26T07:14:43.751Z,8.60
2023-04-26T07:15:43.807Z,9.30
2023-04-26T07:16:44.672Z,8.70
2023-04-26T07:17:43.807Z,8.80
2023-04-26T07:18:44.403Z,8.80
2023-04-26T07:19:43.836Z,8.50
2023-04-26T07:20:43.835Z,8.60
2023-04-26T07:21:43.865Z,8.70
2023-04-26T07:22:43.849Z,8.70
2023-04-26T07:23:43.965Z,8.80
2023-04-26T07:24:43.886Z,8.70
2023-04-26T07:25:43.905Z,9.20
2023-04-26T07:26:43.913Z,8.60
2023-04-26T07:27:43.922Z,8.70
2023-04-26T07:28:43.949Z,8.50
2023-04-26T07:29:43.952Z,8.20
2023-04-26T07:30:43.963Z,8.70
2023-04-26T07:31:43.982Z,8.70
2023-04-26T07:32:44.094Z,8.70
2023-04-26T07:33:44.059Z,8.70
2023-04-26T07:34:44.128Z,8.70
2023-04-26T07:35:44.043Z,8.80
2023-04-26T07:36:44.055Z,8.90
2023-04-26T07:37:44.159Z,8.30
2023-04-26T07:38:44.092Z,8.80
2023-04-26T07:39:44.095Z,8.40
2023-04-26T07:40:44.112Z,8.60
2023-04-26T07:41:44.307Z,8.60
2023-04-26T07:42:44.134Z,8.50
2023-04-26T07:43:44.150Z,8.60
2023-04-26T07:44:44.155Z,8.90
2023-04-26T07:45:44.208Z,8.90
2023-04-26T07:46:44.195Z,8.80
2023-04-26T07:47:44.246Z,8.50
2023-04-26T07:48:44.220Z,8.40
2023-04-26T07:49:45.781Z,8.40
2023-04-26T07:50:44.445Z,8.70
2023-04-26T07:51:44.353Z,9.00
2023-04-26T07:52:44.277Z,8.80
2023-04-26T07:53:44.409Z,8.10
2023-04-26T07:54:44.303Z,8.40
2023-04-26T07:55:44.325Z,8.60
2023-04-26T07:56:44.336Z,8.90
2023-04-26T07:57:44.438Z,8.80
2023-04-26T07:58:44.358Z,8.40
2023-04-26T07:59:44.383Z,8.70
2023-04-26T08:00:44.379Z,8.60
2023-04-26T08:01:44.430Z,8.70
2023-04-26T08:02:45.641Z,9.00
2023-04-26T08:03:44.665Z,8.80
2023-04-26T08:04:44.596Z,8.40
2023-04-26T08:05:44.722Z,8.80
2023-04-26T08:06:44.462Z,8.80
2023-04-26T08:07:44.490Z,8.90
2023-04-26T08:08:44.572Z,8.90
2023-04-26T08:09:44.536Z,8.70
2023-04-26T08:10:44.525Z,9.00
2023-04-26T08:11:44.636Z,8.90
2023-04-26T08:12:44.550Z,9.20
2023-04-26T08:13:44.566Z,8.90
2023-04-26T08:14:44.580Z,8.60
2023-04-26T08:15:44.591Z,8.50
2023-04-26T08:16:44.639Z,8.70
2023-04-26T08:17:44.669Z,9.00
2023-04-26T08:18:46.834Z,8.50
2023-04-26T08:19:44.648Z,8.70
2023-04-26T08:20:44.763Z,8.90
2023-04-26T08:21:44.671Z,8.80
2023-04-26T08:22:44.690Z,8.00
2023-04-26T08:23:44.704Z,8.20
2023-04-26T08:24:44.713Z,8.50
2023-04-26T08:25:46.017Z,8.40
2023-04-26T08:26:44.748Z,8.70
2023-04-26T08:27:44.768Z,8.40
2023-04-26T08:28:44.776Z,8.40
2023-04-26T08:29:44.797Z,8.70
2023-04-26T08:30:44.841Z,8.50
2023-04-26T08:31:44.823Z,8.50
2023-04-26T08:32:44.849Z,8.90
2023-04-26T08:33:44.849Z,8.40
2023-04-26T08:34:44.853Z,8.30
2023-04-26T08:35:44.884Z,8.40
2023-04-26T08:36:44.876Z,8.40
2023-04-26T08:37:44.900Z,8.40
2023-04-26T08:38:44.907Z,8.40
2023-04-26T08:39:44.941Z,8.20
2023-04-26T08:40:44.937Z,8.20
2023-04-26T08:41:45.030Z,8.30
2023-04-26T08:42:44.981Z,8.50
2023-04-26T08:43:45.086Z,8.20
2023-04-26T08:44:44.988Z,8.60
2023-04-26T08:45:45.010Z,8.50
2023-04-26T08:46:45.085Z,8.40
2023-04-26T08:47:45.071Z,8.70
2023-04-26T08:48:45.049Z,8.10
2023-04-26T08:49:45.057Z,8.30
2023-04-26T08:50:45.079Z,8.20
2023-04-26T08:51:45.090Z,8.70
2023-04-26T08:52:45.118Z,8.10
2023-04-26T08:53:45.113Z,8.20
2023-04-26T08:54:45.126Z,8.00
2023-04-26T08:55:45.141Z,8.40
2023-04-26T08:56:45.157Z,8.40
2023-04-26T08:57:45.297Z,8.60
2023-04-26T08:58:45.191Z,8.20
2023-04-26T08:59:45.196Z,8.00
2023-04-26T09:00:45.227Z,8.30
2023-04-26T09:01:45.265Z,8.00
2023-04-26T09:02:45.331Z,8.00
2023-04-26T09:03:45.372Z,8.00
2023-04-26T09:04:45.381Z,8.10
2023-04-26T09:05:45.378Z,8.20
2023-04-26T09:06:45.306Z,8.00
2023-04-26T09:07:45.306Z,8.20
2023-04-26T09:08:45.331Z,8.20
2023-04-26T09:09:45.336Z,8.20
2023-04-26T09:10:45.351Z,8.30
2023-04-26T09:11:45.370Z,8.10
2023-04-26T09:12:45.382Z,8.10
2023-04-26T09:13:45.431Z,7.70
2023-04-26T09:14:45.405Z,8.20
2023-04-26T09:15:45.435Z,8.20
2023-04-26T09:16:45.494Z,8.80
2023-04-26T09:17:45.501Z,7.70
2023-04-26T09:18:45.665Z,7.80
2023-04-26T09:19:45.482Z,8.40
2023-04-26T09:20:45.490Z,7.90
2023-04-26T09:21:45.543Z,8.30
2023-04-26T09:22:45.532Z,8.00
2023-04-26T09:23:45.534Z,8.10
2023-04-26T09:24:45.548Z,8.30
2023-04-26T09:25:45.555Z,7.90
2023-04-26T09:26:45.573Z,8.40
2023-04-26T09:27:45.593Z,8.00
2023-04-26T09:28:45.607Z,8.10
2023-04-26T09:29:45.709Z,8.30
2023-04-26T09:30:45.622Z,8.10
2023-04-26T09:31:48.698Z,8.20
2023-04-26T09:32:45.740Z,8.30
2023-04-26T09:33:45.670Z,8.40
2023-04-26T09:34:45.778Z,8.50
2023-04-26T09:35:45.708Z,8.40
2023-04-26T09:36:45.706Z,8.00
2023-04-26T09:37:57.251Z,7.90
2023-04-26T09:38:45.753Z,7.90
2023-04-26T09:39:45.846Z,8.50
2023-04-26T09:40:45.766Z,7.80
2023-04-26T09:41:45.848Z,7.90
2023-04-26T09:42:45.788Z,8.30
2023-04-26T09:43:45.816Z,7.60
2023-04-26T09:44:45.822Z,7.90
2023-04-26T09:45:46.075Z,8.30
2023-04-26T09:46:45.889Z,7.80
2023-04-26T09:47:45.910Z,7.60
2023-04-26T09:48:46.664Z,8.40
2023-04-26T09:49:45.898Z,8.10
2023-04-26T09:50:45.905Z,7.80
2023-04-26T09:51:45.911Z,7.70
2023-04-26T09:52:45.933Z,7.90
2023-04-26T09:53:45.947Z,7.80
2023-04-26T09:54:45.962Z,7.90
2023-04-26T09:55:45.975Z,7.90
2023-04-26T09:56:45.991Z,7.80
2023-04-26T09:57:45.994Z,7.60
2023-04-26T09:58:46.033Z,7.50
2023-04-26T09:59:46.022Z,8.10
2023-04-26T10:00:46.068Z,7.60
2023-04-26T10:01:46.170Z,7.60
2023-04-26T10:02:46.132Z,7.30
2023-04-26T10:03:46.273Z,7.30
2023-04-26T10:04:46.116Z,7.70
2023-04-26T10:05:46.109Z,7.70
2023-04-26T10:06:46.125Z,7.40
2023-04-26T10:07:46.141Z,8.10
2023-04-26T10:08:46.154Z,7.70
2023-04-26T10:09:46.195Z,7.40
2023-04-26T10:10:46.174Z,7.30
2023-04-26T10:11:46.194Z,7.80
2023-04-26T10:12:46.200Z,7.40
2023-04-26T10:13:46.229Z,7.50
2023-04-26T10:14:46.233Z,7.50
2023-04-26T10:15:46.259Z,7.50
2023-04-26T10:16:46.302Z,7.60
2023-04-26T10:17:46.441Z,7.70
2023-04-26T10:18:46.291Z,7.70
2023-04-26T10:19:46.436Z,7.50
2023-04-26T10:20:46.523Z,7.60
2023-04-26T10:21:46.332Z,7.30
2023-04-26T10:22:46.349Z,7.40
2023-04-26T10:23:46.358Z,7.10
2023-04-26T10:24:46.379Z,7.30
2023-04-26T10:25:46.479Z,7.30
2023-04-26T10:26:46.397Z,7.40
2023-04-26T10:27:46.406Z,7.40
2023-04-26T10:28:46.433Z,7.30
2023-04-26T10:29:46.440Z,7.50
2023-04-26T10:30:46.462Z,7.30
2023-04-26T10:31:46.595Z,7.60
2023-04-26T10:32:46.543Z,7.50
2023-04-26T10:33:46.511Z,7.00
2023-04-26T10:34:46.512Z,7.60
2023-04-26T10:35:46.523Z,6.70
2023-04-26T10:36:46.534Z,7.10
2023-04-26T10:37:46.659Z,7.10
2023-04-26T10:38:46.561Z,6.80
2023-04-26T10:39:46.658Z,6.90
2023-04-26T10:40:46.587Z,6.90
2023-04-26T10:41:46.602Z,7.00
2023-04-26T10:42:46.827Z,7.20
2023-04-26T10:43:46.639Z,6.80
2023-04-26T10:44:46.646Z,7.20
2023-04-26T10:45:46.717Z,7.20
2023-04-26T10:46:46.679Z,6.90
2023-04-26T10:47:46.756Z,7.10
2023-04-26T10:48:46.704Z,6.60
2023-04-26T10:49:46.740Z,7.30
2023-04-26T10:50:46.736Z,7.20
2023-04-26T10:51:46.748Z,7.00
2023-04-26T10:52:46.757Z,7.00
2023-04-26T10:53:46.772Z,6.90
2023-04-26T10:54:46.794Z,6.70
2023-04-26T10:55:46.805Z,6.80
2023-04-26T10:56:46.809Z,6.60
2023-04-26T10:57:46.834Z,7.00
2023-04-26T10:58:46.841Z,6.90
2023-04-26T10:59:54.357Z,6.90
2023-04-26T11:00:46.886Z,7.00
2023-04-26T11:01:46.972Z,6.80
2023-04-26T11:02:46.957Z,7.10
2023-04-26T11:03:47.117Z,6.50
2023-04-26T11:04:46.953Z,6.90
2023-04-26T11:05:47.006Z,6.50
2023-04-26T11:06:46.971Z,6.60
2023-04-26T11:07:46.968Z,6.20
2023-04-26T11:08:46.984Z,6.70
2023-04-26T11:09:47.003Z,6.70
2023-04-26T11:10:47.010Z,6.30
2023-04-26T11:11:47.016Z,7.00
2023-04-26T11:12:47.040Z,6.70
2023-04-26T11:13:47.045Z,6.90
2023-04-26T11:14:47.058Z,6.60
2023-04-26T11:15:47.519Z,6.90
2023-04-26T11:16:47.109Z,6.70
2023-04-26T11:17:47.132Z,6.50
2023-04-26T11:18:47.223Z,6.90
2023-04-26T11:19:47.123Z,6.60
2023-04-26T11:20:47.155Z,6.90
2023-04-26T11:21:47.261Z,6.80
2023-04-26T11:22:47.171Z,6.60
2023-04-26T11:23:47.183Z,6.60
2023-04-26T11:24:47.199Z,6.70
2023-04-26T11:25:47.252Z,6.40
2023-04-26T11:26:47.231Z,7.00
2023-04-26T11:27:47.237Z,7.20
2023-04-26T11:28:47.258Z,6.60
2023-04-26T11:29:47.268Z,7.00
2023-04-26T11:30:47.277Z,6.70
2023-04-26T11:31:47.326Z,7.70
2023-04-26T11:32:47.314Z,7.20
2023-04-26T11:33:49.186Z,6.80
2023-04-26T11:34:47.341Z,6.80
2023-04-26T11:35:47.458Z,6.80
2023-04-26T11:36:47.371Z,6.90
2023-04-26T11:37:47.395Z,7.10
2023-04-26T11:38:47.419Z,6.50
2023-04-26T11:39:47.402Z,7.00
2023-04-26T11:40:47.425Z,6.80
2023-04-26T11:41:47.438Z,6.60
2023-04-26T11:42:47.442Z,6.60
2023-04-26T11:43:47.487Z,6.40
2023-04-26T11:44:48.043Z,7.00
2023-04-26T11:45:47.482Z,6.60
2023-04-26T11:46:47.535Z,6.40
2023-04-26T11:47:47.542Z,6.50
2023-04-26T11:48:47.538Z,7.80
2023-04-26T11:49:47.555Z,6.70
2023-04-26T11:50:47.554Z,6.70
2023-04-26T11:51:47.575Z,6.90
2023-04-26T11:52:47.582Z,6.60
2023-04-26T11:53:47.652Z,6.80
2023-04-26T11:54:47.611Z,7.30
2023-04-26T11:55:47.624Z,7.10
2023-04-26T11:56:47.643Z,6.90
2023-04-26T11:57:47.663Z,6.80
2023-04-26T11:58:47.660Z,6.90
2023-04-26T11:59:47.677Z,6.40
2023-04-26T12:00:47.696Z,6.50
2023-04-26T12:01:47.762Z,6.80
2023-04-26T12:02:47.840Z,6.60
2023-04-26T12:03:47.898Z,6.60
2023-04-26T12:04:48.144Z,6.90
2023-04-26T12:05:47.860Z,6.90
2023-04-26T12:06:47.774Z,6.80
2023-04-26T12:07:47.804Z,6.40
2023-04-26T12:08:47.832Z,6.70
2023-04-26T12:09:47.881Z,7.00
2023-04-26T12:10:47.834Z,6.70
2023-04-26T12:11:47.851Z,6.60
2023-04-26T12:12:47.864Z,6.40
2023-04-26T12:13:47.880Z,6.30
2023-04-26T12:14:47.897Z,6.80
2023-04-26T12:15:47.909Z,6.70
2023-04-26T12:16:47.982Z,6.70
2023-04-26T12:17:47.953Z,7.20
2023-04-26T12:18:47.946Z,6.80
2023-04-26T12:19:47.954Z,6.60
2023-04-26T12:20:47.973Z,6.80
2023-04-26T12:21:47.988Z,6.20
2023-04-26T12:22:48.007Z,6.60
2023-04-26T12:23:48.037Z,6.30
2023-04-26T12:24:48.025Z,6.70
2023-04-26T12:25:48.267Z,6.70
2023-04-26T12:26:48.054Z,6.30
2023-04-26T12:27:48.171Z,6.70
2023-04-26T12:28:48.091Z,6.40
2023-04-26T12:29:48.097Z,6.50
2023-04-26T12:30:48.113Z,6.80
2023-04-26T12:31:48.229Z,6.70
2023-04-26T12:32:48.156Z,6.50
2023-04-26T12:33:48.148Z,6.50
2023-04-26T12:34:48.169Z,6.50
2023-04-26T12:35:48.188Z,6.40
2023-04-26T12:36:48.189Z,6.40
2023-04-26T12:37:48.214Z,6.40
2023-04-26T12:38:48.216Z,6.60
2023-04-26T12:39:48.329Z,6.30
2023-04-26T12:40:48.275Z,6.20
2023-04-26T12:41:48.278Z,6.40
2023-04-26T12:42:48.280Z,6.30
2023-04-26T12:43:48.285Z,6.30
2023-04-26T12:44:48.307Z,6.50
2023-04-26T12:45:48.332Z,6.50
2023-04-26T12:46:48.540Z,6.50
2023-04-26T12:47:48.376Z,6.40
2023-04-26T12:48:48.363Z,6.60
2023-04-26T12:49:48.382Z,6.50
2023-04-26T12:50:48.723Z,6.50
2023-04-26T12:51:48.407Z,6.40
2023-04-26T12:52:48.419Z,6.50
2023-04-26T12:53:48.433Z,6.20
2023-04-26T12:54:48.456Z,6.20
2023-04-26T12:55:48.451Z,6.30
2023-04-26T12:56:48.477Z,6.40
2023-04-26T12:57:48.508Z,6.50
2023-04-26T12:58:48.494Z,6.40
2023-04-26T12:59:48.517Z,6.10
2023-04-26T13:00:48.520Z,6.50
2023-04-26T13:01:48.580Z,6.40
2023-04-26T13:02:48.690Z,6.20
2023-04-26T13:03:48.922Z,6.50
2023-04-26T13:04:48.752Z,6.40
2023-04-26T13:05:48.603Z,6.40
2023-04-26T13:06:48.612Z,6.30
2023-04-26T13:07:48.620Z,6.30